sensor_id;sensor_type;location;lat;lon;timestamp;P1;durP1;ratioP1;P2;durP2;ratioP2
56173;SDS011;42058;52.308;20.924;2023-05-14T18:41:31;4.10;;;2.30;;
56173;SDS011;42058;52.308;20.924;2023-05-14T18:43:58;3.60;;;2.30;;
56173;SDS011;42058;52.308;20.924;2023-05-14T18:46:24;5.90;;;2.80;;
56173;SDS011;42058;52.308;20.924;2023-05-14T18:48:58;14.70;;;2.90;;
56173;SDS011;42058;52.308;20.924;2023-05-14T18:51:26;6.90;;;2.70;;
56173;SDS011;42058;52.308;20.924;2023-05-14T18:53:56;5.50;;;2.60;;
56173;SDS011;42058;52.308;20.924;2023-05-14T18:56:24;8.90;;;2.70;;
56173;SDS011;42058;52.308;20.924;2023-05-14T18:58:51;5.50;;;2.90;;
56173;SDS011;42058;52.308;20.924;2023-05-14T19:01:18;5.80;;;2.80;;
56173;SDS011;42058;52.308;20.924;2023-05-14T19:03:46;3.90;;;2.80;;
56173;SDS011;42058;52.308;20.924;2023-05-14T19:06:12;4.40;;;2.80;;
56173;SDS011;42058;52.308;20.924;2023-05-14T19:08:39;5.30;;;3.30;;
56173;SDS011;42058;52.308;20.924;2023-05-14T19:11:06;4.30;;;3.10;;
56173;SDS011;42058;52.308;20.924;2023-05-14T19:13:33;8.70;;;3.00;;
56173;SDS011;42058;52.308;20.924;2023-05-14T19:15:59;5.10;;;2.90;;
56173;SDS011;42058;52.308;20.924;2023-05-14T19:18:26;5.70;;;2.70;;
56173;SDS011;42058;52.308;20.924;2023-05-14T19:20:52;5.70;;;3.00;;
56173;SDS011;42058;52.308;20.924;2023-05-14T19:23:18;8.70;;;3.10;;
56173;SDS011;42058;52.308;20.924;2023-05-14T19:25:45;4.50;;;2.80;;
56173;SDS011;42058;52.308;20.924;2023-05-14T19:28:11;8.30;;;2.90;;
56173;SDS011;42058;52.308;20.924;2023-05-14T19:30:39;10.10;;;3.10;;
56173;SDS011;42058;52.308;20.924;2023-05-14T19:33:06;7.90;;;3.40;;
56173;SDS011;42058;52.308;20.924;2023-05-14T19:35:33;5.70;;;3.40;;
56173;SDS011;42058;52.308;20.924;2023-05-14T19:37:59;4.50;;;3.50;;
56173;SDS011;42058;52.308;20.924;2023-05-14T19:40:25;7.50;;;3.50;;
56173;SDS011;42058;52.308;20.924;2023-05-14T19:42:54;6.50;;;3.60;;
56173;SDS011;42058;52.308;20.924;2023-05-14T19:45:21;9.80;;;4.00;;
56173;SDS011;42058;52.308;20.924;2023-05-14T19:47:47;11.50;;;4.90;;
56173;SDS011;42058;52.308;20.924;2023-05-14T19:50:14;12.30;;;5.30;;
56173;SDS011;42058;52.308;20.924;2023-05-14T19:52:41;9.30;;;5.30;;
56173;SDS011;42058;52.308;20.924;2023-05-14T19:55:07;7.70;;;5.00;;
56173;SDS011;42058;52.308;20.924;2023-05-14T19:57:34;10.20;;;5.30;;
56173;SDS011;42058;52.308;20.924;2023-05-14T20:00:00;14.30;;;5.40;;
56173;SDS011;42058;52.308;20.924;2023-05-14T20:02:29;10.70;;;5.50;;
56173;SDS011;42058;52.308;20.924;2023-05-14T20:04:57;11.80;;;5.30;;
56173;SDS011;42058;52.308;20.924;2023-05-14T20:07:23;11.70;;;5.50;;
56173;SDS011;42058;52.308;20.924;2023-05-14T20:09:50;11.90;;;5.70;;
56173;SDS011;42058;52.308;20.924;2023-05-14T20:12:17;12.70;;;5.90;;
56173;SDS011;42058;52.308;20.924;2023-05-14T20:14:43;17.80;;;6.00;;
56173;SDS011;42058;52.308;20.924;2023-05-14T20:17:10;11.20;;;6.10;;
56173;SDS011;42058;52.308;20.924;2023-05-14T20:19:36;13.40;;;7.10;;
56173;SDS011;42058;52.308;20.924;2023-05-14T20:22:03;11.00;;;6.50;;
56173;SDS011;42058;52.308;20.924;2023-05-14T20:24:29;12.50;;;6.10;;
56173;SDS011;42058;52.308;20.924;2023-05-14T20:26:56;13.20;;;5.80;;
56173;SDS011;42058;52.308;20.924;2023-05-14T20:29:22;12.50;;;5.80;;
56173;SDS011;42058;52.308;20.924;2023-05-14T20:31:49;9.90;;;5.30;;
56173;SDS011;42058;52.308;20.924;2023-05-14T20:34:15;8.80;;;5.60;;
56173;SDS011;42058;52.308;20.924;2023-05-14T20:36:41;12.50;;;5.90;;
56173;SDS011;42058;52.308;20.924;2023-05-14T20:39:08;12.50;;;6.50;;
